Time;durP1;ratioP1;P1;durP2;ratioP2;P2;SDS_P1;SDS_P2;PMS_P1;PMS_P2;Temp;Humidity;BMP_temperature;BMP_pressure;BME280_temperature;BME280_humidity;BME280_pressure;Samples;Min_cycle;Max_cycle;Signal;HPM_P1;HPM_P2
2021/01/04 00:00:13;;;;;;;32.37;12.23;;;;;;;5.73;83.86;101185.14;127776;1091;104231;-74
2021/01/04 00:03:34;;;;;;;27.37;11.50;;;;;;;5.76;83.83;101194.08;127675;1091;104337;-74
2021/01/04 00:06:20;;;;;;;30.57;12.30;;;;;;;5.80;83.87;101197.77;127598;1092;104340;-74
2021/01/04 00:09:10;;;;;;;27.73;10.80;;;;;;;5.84;83.76;101202.36;127770;1091;104237;-74
2021/01/04 00:11:49;;;;;;;30.73;11.80;;;;;;;5.88;83.71;101200.88;127601;1094;104436;-74
2021/01/04 00:14:33;;;;;;;31.13;12.50;;;;;;;5.91;83.94;101198.48;127789;1091;104338;-73
2021/01/04 00:17:15;;;;;;;26.90;11.85;;;;;;;5.95;83.93;101190.05;127746;1092;104340;-73
2021/01/04 00:19:53;;;;;;;32.27;12.03;;;;;;;5.92;83.56;101187.23;127806;1093;104347;-73
2021/01/04 00:22:31;;;;;;;31.00;11.73;;;;;;;5.91;83.77;101190.67;127772;1091;104238;-73
2021/01/04 00:25:13;;;;;;;30.80;11.63;;;;;;;5.91;83.90;101182.85;127832;1092;104375;-73
2021/01/04 00:27:48;;;;;;;27.97;11.20;;;;;;;5.87;83.64;101176.52;127809;1091;104378;-74
2021/01/04 00:30:24;;;;;;;30.93;12.67;;;;;;;5.91;83.85;101175.04;127770;1092;104317;-74
2021/01/04 00:32:58;;;;;;;24.27;10.17;;;;;;;5.92;83.54;101167.32;127778;1091;104343;-74
2021/01/04 00:35:31;;;;;;;29.43;12.17;;;;;;;5.93;83.98;101178.63;127821;1091;104218;-73
2021/01/04 00:38:29;;;;;;;27.70;11.20;;;;;;;5.97;83.83;101183.28;127813;1092;104240;-73
2021/01/04 00:41:18;;;;;;;29.77;11.70;;;;;;;6.01;83.85;101180.06;127647;1092;104346;-73
2021/01/04 00:43:52;;;;;;;34.10;12.00;;;;;;;6.04;83.77;101172.44;127743;1092;104302;-74
2021/01/04 00:46:27;;;;;;;25.07;10.50;;;;;;;6.03;83.40;101165.45;127595;1092;104222;-73
2021/01/04 00:49:10;;;;;;;24.93;9.70;;;;;;;6.01;83.59;101159.22;127802;1091;104414;-73
2021/01/04 00:51:49;;;;;;;26.53;10.57;;;;;;;6.00;83.84;101160.04;127365;1094;104364;-73
2021/01/04 00:54:37;;;;;;;25.50;11.40;;;;;;;6.00;83.54;101165.25;127803;1091;104314;-73
2021/01/04 00:57:30;;;;;;;27.60;10.67;;;;;;;6.00;83.49;101169.53;127795;1092;104212;-73
2021/01/04 01:00:13;;;;;;;29.33;12.33;;;;;;;5.98;83.66;101171.16;127361;1092;104221;-74
2021/01/04 01:03:07;;;;;;;28.73;11.17;;;;;;;6.00;83.66;101175.67;127777;1092;104218;-73
2021/01/04 01:05:47;;;;;;;24.67;10.67;;;;;;;6.02;83.73;101168.84;127368;1094;104218;-73
2021/01/04 01:08:23;;;;;;;29.40;12.27;;;;;;;6.02;84.07;101167.95;127785;1091;104658;-74
2021/01/04 01:10:57;;;;;;;30.50;11.73;;;;;;;6.03;83.75;101162.84;127753;1091;104346;-74
2021/01/04 01:13:42;;;;;;;34.13;12.20;;;;;;;6.08;83.76;101160.53;127800;1092;104340;-74
2021/01/04 01:16:22;;;;;;;32.20;11.00;;;;;;;6.14;83.71;101154.80;127776;1092;104212;-74
2021/01/04 01:19:10;;;;;;;34.57;11.73;;;;;;;6.19;84.02;101163.83;127815;1092;104221;-74
2021/01/04 01:21:43;;;;;;;29.37;11.33;;;;;;;6.22;83.98;101151.89;127771;1092;104237;-73
2021/01/04 01:24:14;;;;;;;28.23;9.93;;;;;;;6.22;83.63;101156.20;127772;1091;104209;-73
2021/01/04 01:27:08;;;;;;;31.97;12.33;;;;;;;6.16;83.57;101155.81;127509;1092;104273;-73
2021/01/04 01:30:07;;;;;;;29.40;11.93;;;;;;;6.09;83.62;101155.42;127586;1092;104308;-74
2021/01/04 01:33:01;;;;;;;30.77;11.77;;;;;;;6.06;83.55;101154.30;127816;1091;104232;-73
2021/01/04 01:36:00;;;;;;;26.62;10.50;;;;;;;6.11;84.04;101159.02;127834;1091;104206;-73
2021/01/04 01:38:51;;;;;;;28.87;12.33;;;;;;;6.16;83.88;101150.60;127569;1093;104282;-74
2021/01/04 01:41:41;;;;;;;30.37;13.87;;;;;;;6.14;83.78;101150.51;127770;1092;104208;-75
2021/01/04 01:44:18;;;;;;;36.10;14.80;;;;;;;6.14;83.70;101137.48;127803;1092;104259;-74
2021/01/04 01:46:55;;;;;;;36.97;15.07;;;;;;;6.14;83.64;101127.05;127812;1091;104298;-73
2021/01/04 01:49:43;;;;;;;36.40;16.10;;;;;;;6.15;83.92;101127.94;127839;1092;104358;-74
2021/01/04 01:52:35;;;;;;;30.83;15.17;;;;;;;6.15;83.66;101120.12;127757;1092;104245;-75
2021/01/04 01:55:27;;;;;;;32.23;13.53;;;;;;;6.10;83.79;101115.52;127773;1092;104237;-73
2021/01/04 01:58:18;;;;;;;33.27;15.37;;;;;;;6.08;83.54;101121.45;127457;1092;104309;-74
2021/01/04 02:00:56;;;;;;;31.65;14.80;;;;;;;6.09;83.95;101120.63;127782;1092;104208;-75
2021/01/04 02:03:32;;;;;;;30.23;13.67;;;;;;;6.14;83.83;101116.62;127806;1091;104443;-75
2021/01/04 02:06:24;;;;;;;25.83;10.97;;;;;;;6.11;83.89;101114.72;127787;1091;104394;-74
2021/01/04 02:09:01;;;;;;;28.33;13.37;;;;;;;6.06;83.55;101110.94;127804;1092;104222;-72
2021/01/04 02:11:48;;;;;;;32.63;14.30;;;;;;;6.03;83.89;101113.34;127810;1092;104206;-72
2021/01/04 02:14:26;;;;;;;24.77;10.90;;;;;;;5.99;83.84;101108.73;127787;1091;104211;-72
2021/01/04 02:17:16;;;;;;;28.13;12.70;;;;;;;5.92;84.09;101110.02;127744;1092;104337;-72
2021/01/04 02:20:03;;;;;;;27.73;13.30;;;;;;;5.87;84.00;101106.19;127752;1091;104308;-72
2021/01/04 02:22:55;;;;;;;28.00;11.53;;;;;;;5.86;83.82;101103.48;127739;1091;104337;-73
2021/01/04 02:25:30;;;;;;;27.07;12.50;;;;;;;5.87;84.13;101100.09;127790;1092;104241;-73
2021/01/04 02:28:06;;;;;;;28.07;11.40;;;;;;;5.88;84.05;101091.48;127810;1091;104286;-73
2021/01/04 02:30:36;;;;;;;27.10;11.97;;;;;;;5.86;84.17;101083.58;127816;1091;104205;-73
2021/01/04 02:33:09;;;;;;;27.37;12.17;;;;;;;5.86;83.90;101077.44;127756;1091;104208;-73
2021/01/04 02:35:41;;;;;;;23.53;10.57;;;;;;;5.86;84.12;101073.16;127823;1092;104279;-73
2021/01/04 02:38:13;;;;;;;23.83;10.33;;;;;;;5.86;84.06;101072.23;127790;1091;104218;-73
2021/01/04 02:40:43;;;;;;;27.40;11.93;;;;;;;5.84;84.04;101069.53;127811;1092;104218;-73
2021/01/04 02:43:13;;;;;;;27.13;11.80;;;;;;;5.85;84.16;101070.45;127814;1092;104206;-73
2021/01/04 02:45:43;;;;;;;26.80;11.87;;;;;;;5.87;84.02;101072.33;127526;1093;104352;-73
2021/01/04 02:48:25;;;;;;;28.60;11.33;;;;;;;5.91;84.49;101061.31;127798;1092;104261;-73
2021/01/04 02:51:06;;;;;;;28.07;11.70;;;;;;;5.89;84.25;101060.33;127810;1092;104295;-73
2021/01/04 02:54:04;;;;;;;25.47;11.90;;;;;;;5.87;84.20;101059.30;127807;1091;104219;-73
2021/01/04 02:56:51;;;;;;;25.87;11.00;;;;;;;5.87;84.11;101063.63;127657;1092;104337;-73
2021/01/04 02:59:42;;;;;;;31.77;12.70;;;;;;;5.85;84.11;101053.11;127662;1092;104445;-74
2021/01/04 03:02:18;;;;;;;23.70;10.43;;;;;;;5.82;84.11;101060.73;127766;1091;104283;-73
2021/01/04 03:04:50;;;;;;;23.45;9.30;;;;;;;5.79;84.13;101055.33;127790;1091;104330;-73
2021/01/04 03:07:24;;;;;;;27.87;11.73;;;;;;;5.78;84.19;101052.62;127801;1092;104285;-73
2021/01/04 03:09:54;;;;;;;;;;;;;;;5.76;84.48;101050.84;127833;1092;104209;-73
2021/01/04 03:12:27;;;;;;;24.60;11.63;;;;;;;5.76;84.18;101056.05;127740;1091;104299;-73
2021/01/04 03:15:08;;;;;;;31.23;12.50;;;;;;;5.76;84.24;101043.03;127781;1092;104285;-74
2021/01/04 03:17:48;;;;;;;27.70;12.70;;;;;;;5.75;84.41;101038.61;127811;1091;104206;-73
2021/01/04 03:20:21;;;;;;;25.57;10.83;;;;;;;5.75;84.44;101037.73;127806;1092;104293;-73
2021/01/04 03:22:52;;;;;;;25.47;11.50;;;;;;;5.70;84.31;101045.24;127777;1092;104397;-73
2021/01/04 03:25:32;;;;;;;21.40;9.27;;;;;;;5.67;84.74;101047.65;127774;1092;104362;-73
2021/01/04 03:28:05;;;;;;;32.53;12.70;;;;;;;5.64;84.38;101063.08;127813;1091;104218;-73
2021/01/04 03:30:35;;;;;;;28.50;12.63;;;;;;;5.64;84.39;101050.05;127846;1092;104218;-73
2021/01/04 03:33:05;;;;;;;27.63;11.20;;;;;;;5.64;84.68;101049.12;127811;1091;104337;-73
2021/01/04 03:35:35;;;;;;;25.07;10.47;;;;;;;5.63;84.63;101052.56;127804;1092;104331;-73
2021/01/04 03:38:06;;;;;;;30.60;12.40;;;;;;;5.61;84.53;101056.75;127782;1091;104234;-73
2021/01/04 03:40:36;;;;;;;30.10;12.63;;;;;;;5.62;84.56;101043.83;127782;1091;104218;-73
2021/01/04 03:43:06;;;;;;;28.80;14.27;;;;;;;5.64;84.77;101055.27;127825;1092;104218;-73
2021/01/04 03:45:36;;;;;;;29.40;12.87;;;;;;;5.65;84.62;101059.64;127841;1091;104222;-73
2021/01/04 03:48:07;;;;;;;30.87;14.20;;;;;;;5.65;84.69;101059.64;127795;1092;104331;-73
2021/01/04 03:50:37;;;;;;;26.17;11.13;;;;;;;5.63;84.55;101056.05;127712;1091;104403;-74
2021/01/04 03:53:07;;;;;;;27.90;12.33;;;;;;;5.62;84.60;101062.05;127762;1091;104240;-73
2021/01/04 03:55:38;;;;;;;33.50;14.23;;;;;;;5.65;84.68;101064.85;127801;1091;104224;-73
2021/01/04 03:58:09;;;;;;;30.30;13.27;;;;;;;5.68;84.98;101059.84;127799;1092;104407;-73
2021/01/04 04:00:39;;;;;;;31.93;13.30;;;;;;;5.73;84.62;101066.27;127710;1091;104366;-74
2021/01/04 04:03:09;;;;;;;32.43;15.33;;;;;;;5.75;84.52;101064.66;127775;1092;104205;-72
2021/01/04 04:05:39;;;;;;;27.80;12.87;;;;;;;5.78;84.58;101066.56;127738;1091;104738;-75
2021/01/04 04:08:09;;;;;;;36.43;16.67;;;;;;;5.78;84.59;101063.96;127797;1092;104280;-74
2021/01/04 04:10:39;;;;;;;26.33;12.10;;;;;;;5.80;84.93;101064.03;127743;1092;104412;-74
2021/01/04 04:13:09;;;;;;;32.50;15.03;;;;;;;5.78;84.45;101058.75;127712;1091;104324;-73
2021/01/04 04:15:39;;;;;;;32.50;14.40;;;;;;;5.74;84.52;101054.14;127696;1092;104449;-74
2021/01/04 04:18:09;;;;;;;28.50;13.27;;;;;;;5.73;84.70;101071.48;127751;1091;104212;-73
2021/01/04 04:20:39;;;;;;;33.47;15.60;;;;;;;5.67;84.75;101081.50;127799;1091;104283;-74
2021/01/04 04:23:09;;;;;;;32.17;14.93;;;;;;;5.69;84.67;101076.39;127695;1093;104225;-74
2021/01/04 04:25:44;;;;;;;34.77;14.63;;;;;;;5.70;84.72;101086.91;127745;1092;104480;-74
2021/01/04 04:28:15;;;;;;;32.80;15.40;;;;;;;5.74;84.91;101082.78;127771;1091;104212;-74
2021/01/04 04:30:45;;;;;;;33.93;16.33;;;;;;;5.80;84.71;101092.67;127754;1092;104218;-74
2021/01/04 04:33:15;;;;;;;37.73;17.33;;;;;;;5.85;84.69;101089.58;127813;1093;104186;-75
2021/01/04 04:35:44;;;;;;;32.77;15.37;;;;;;;5.87;84.78;101082.75;127706;1091;104258;-76
2021/01/04 04:38:15;;;;;;;32.20;16.07;;;;;;;5.83;84.76;101080.77;127485;1092;104299;-74
2021/01/04 04:40:50;;;;;;;34.37;15.03;;;;;;;5.75;84.36;101080.28;127572;1092;104315;-77
2021/01/04 04:43:33;;;;;;;37.43;16.13;;;;;;;5.74;84.53;101094.09;127744;1092;104212;-76
2021/01/04 04:46:07;;;;;;;35.70;16.53;;;;;;;5.73;84.86;101091.39;127811;1091;104215;-75
2021/01/04 04:48:49;;;;;;;39.35;17.77;;;;;;;5.73;84.74;101093.99;127819;1091;104295;-76
2021/01/04 04:51:40;;;;;;;35.23;16.97;;;;;;;5.79;84.87;101101.31;127771;1091;104363;-74
2021/01/04 04:54:32;;;;;;;36.63;17.53;;;;;;;5.77;84.64;101106.42;127739;1092;104206;-75
2021/01/04 04:57:30;;;;;;;39.97;18.33;;;;;;;5.80;84.63;101098.80;127759;1091;104205;-77
2021/01/04 05:00:11;;;;;;;37.93;19.10;;;;;;;5.83;84.83;101095.48;127724;1092;104282;-75
2021/01/04 05:02:56;;;;;;;38.27;17.73;;;;;;;5.81;84.73;101090.17;127717;1092;104657;-75
2021/01/04 05:05:31;;;;;;;39.47;17.83;;;;;;;5.82;84.85;101094.59;127567;1092;104209;-76
2021/01/04 05:08:13;;;;;;;35.37;17.17;;;;;;;5.82;84.69;101093.70;128848;1092;102000;-77
2021/01/04 05:10:49;;;;;;;37.80;17.20;;;;;;;5.79;84.71;101077.87;127598;1091;104059;-75
2021/01/04 05:13:26;;;;;;;37.63;18.20;;;;;;;5.78;84.66;101073.45;127612;1091;104202;-76
2021/01/04 05:16:05;;;;;;;33.87;15.00;;;;;;;5.77;84.75;101075.17;127676;1092;104231;-75
2021/01/04 05:18:58;;;;;;;35.73;16.70;;;;;;;5.70;84.62;101092.11;127679;1091;104379;-76
2021/01/04 05:21:58;;;;;;;37.63;18.43;;;;;;;5.67;84.86;101097.13;127724;1092;104206;-75
2021/01/04 05:24:52;;;;;;;43.20;20.03;;;;;;;5.65;85.00;101087.40;127727;1092;104222;-77
2021/01/04 05:27:47;;;;;;;41.28;18.65;;;;;;;5.66;84.85;101100.52;127733;1092;104276;-76
2021/01/04 05:30:26;;;;;;;33.67;15.20;;;;;;;5.68;84.84;101100.62;127701;1091;104234;-77
2021/01/04 05:33:13;;;;;;;40.73;19.40;;;;;;;5.67;84.77;101098.80;127758;1091;104355;-76
2021/01/04 05:35:45;;;;;;;38.50;18.07;;;;;;;5.66;84.68;101100.52;127723;1092;104205;-77
2021/01/04 05:38:26;;;;;;;37.47;17.70;;;;;;;5.66;85.13;101104.83;127795;1093;104244;-79
2021/01/04 05:41:25;;;;;;;39.43;19.03;;;;;;;5.68;84.94;101103.22;127656;1091;104247;-78
2021/01/04 05:44:13;;;;;;;39.17;18.10;;;;;;;5.68;85.08;101096.30;127599;1091;104224;-76
2021/01/04 05:46:50;;;;;;;37.20;17.27;;;;;;;5.69;84.81;101094.62;127593;1092;104224;-75
2021/01/04 05:49:31;;;;;;;36.63;17.50;;;;;;;5.69;84.83;101094.62;127637;1092;104362;-75
2021/01/04 05:52:01;;;;;;;33.03;15.50;;;;;;;5.70;84.87;101097.32;127655;1092;104279;-73
2021/01/04 05:54:34;;;;;;;39.20;17.47;;;;;;;5.69;84.99;101098.11;127628;1091;104407;-73
2021/01/04 05:57:07;;;;;;;33.18;16.27;;;;;;;5.71;84.80;101098.21;127639;1091;104321;-75
2021/01/04 05:59:48;;;;;;;34.37;16.20;;;;;;;5.73;84.88;101093.99;127424;1093;104365;-75
2021/01/04 06:02:33;;;;;;;38.03;17.50;;;;;;;5.70;85.00;101094.72;127433;1091;104311;-76
2021/01/04 06:05:10;;;;;;;36.20;16.67;;;;;;;5.73;84.83;101092.31;127487;1092;104208;-75
2021/01/04 06:07:43;;;;;;;36.30;16.87;;;;;;;5.73;85.05;101097.52;127319;1092;104321;-76
2021/01/04 06:10:22;;;;;;;34.10;15.67;;;;;;;5.71;84.99;101088.69;127217;1092;104301;-78
2021/01/04 06:12:53;;;;;;;30.90;14.60;;;;;;;5.79;84.77;101096.10;127387;1091;104253;-77
2021/01/04 06:15:31;;;;;;;36.63;16.70;;;;;;;5.80;85.10;101104.02;127459;1091;104356;-76
2021/01/04 06:18:08;;;;;;;36.37;16.00;;;;;;;5.82;84.87;101098.91;127593;1092;104212;-76
2021/01/04 06:21:02;;;;;;;35.95;17.32;;;;;;;5.81;84.72;101100.59;127918;1091;104362;-77
2021/01/04 06:23:34;;;;;;;35.80;18.23;;;;;;;5.79;84.76;101111.73;127554;1092;104241;-75
2021/01/04 06:26:11;;;;;;;39.70;17.70;;;;;;;5.79;85.04;101114.33;127340;1092;104238;-76
2021/01/04 06:28:54;;;;;;;40.93;20.03;;;;;;;5.81;85.05;101117.92;127324;1091;104240;-75
2021/01/04 06:31:32;;;;;;;39.90;18.47;;;;;;;5.86;84.90;101124.33;127474;1091;104243;-76
2021/01/04 06:34:23;;;;;;;44.10;20.55;;;;;;;5.88;84.83;101122.74;127386;1092;104234;-77
2021/01/04 06:36:59;;;;;;;37.53;17.77;;;;;;;5.90;85.02;101127.22;127385;1092;104337;-75
2021/01/04 06:39:34;;;;;;;41.97;19.80;;;;;;;5.94;84.89;101133.56;127504;1091;103423;-76
2021/01/04 06:42:19;;;;;;;40.93;16.47;;;;;;;6.00;85.28;101127.85;127369;1091;104269;-75
2021/01/04 06:45:24;;;;;;;37.90;17.43;;;;;;;6.00;85.24;101118.36;128421;1092;104283;-77
2021/01/04 06:48:02;;;;;;;37.80;15.63;;;;;;;6.02;84.89;101115.84;127456;1092;104343;-75
2021/01/04 06:50:41;;;;;;;41.00;17.50;;;;;;;5.99;84.77;101119.15;127441;1091;104234;-76
2021/01/04 06:53:35;;;;;;;36.33;17.27;;;;;;;5.98;84.69;101116.45;128868;1092;102916;-77
2021/01/04 06:56:29;;;;;;;30.77;12.30;;;;;;;5.97;84.83;101118.16;127441;1091;104334;-77
2021/01/04 06:59:27;;;;;;;44.33;19.60;;;;;;;5.92;84.78;101128.25;127489;1091;104433;-76
2021/01/04 07:02:28;;;;;;;31.27;13.83;;;;;;;5.92;85.06;101116.91;127532;1092;104314;-76
2021/01/04 07:05:23;;;;;;;40.20;18.77;;;;;;;5.90;85.03;101121.13;127558;1092;104202;-75
2021/01/04 07:08:25;;;;;;;41.13;18.57;;;;;;;5.94;84.98;101117.92;127544;1091;104206;-75
2021/01/04 07:11:10;;;;;;;44.07;20.97;;;;;;;5.96;85.04;101116.31;127412;1091;104319;-77
2021/01/04 07:14:00;;;;;;;40.20;19.00;;;;;;;6.01;85.14;101114.92;127354;1092;104270;-77
2021/01/04 07:16:49;;;;;;;43.60;20.63;;;;;;;5.98;85.01;101119.94;127592;1092;104266;-76
2021/01/04 07:19:42;;;;;;;38.00;17.90;;;;;;;5.93;84.91;101105.70;127463;1091;104231;-75
2021/01/04 07:22:25;;;;;;;39.23;18.43;;;;;;;5.91;85.12;101110.80;127309;1091;104243;-76
2021/01/04 07:25:08;;;;;;;34.67;15.90;;;;;;;5.87;85.07;101113.11;127368;1092;104260;-75
2021/01/04 07:27:49;;;;;;;30.73;13.90;;;;;;;5.86;85.01;101117.44;127458;1091;104257;-77
2021/01/04 07:30:25;;;;;;;37.97;18.07;;;;;;;5.82;85.12;101115.42;127444;1091;104254;-77
2021/01/04 07:33:02;;;;;;;38.80;16.47;;;;;;;5.80;85.12;101110.91;127331;1091;104257;-77
2021/01/04 07:35:39;;;;;;;36.47;16.10;;;;;;;5.81;85.29;101125.74;127500;1092;104372;-76
2021/01/04 07:38:26;;;;;;;37.43;15.80;;;;;;;5.83;85.16;101113.70;127476;1092;104218;-78
2021/01/04 07:41:07;;;;;;;37.33;17.30;;;;;;;5.84;84.97;101119.02;127486;1092;104282;-74
2021/01/04 07:44:02;;;;;;;39.47;18.13;;;;;;;5.88;85.27;101107.11;127552;1091;104314;-76
2021/01/04 07:46:52;;;;;;;42.47;19.10;;;;;;;5.89;85.04;101107.21;127460;1091;104307;-75
2021/01/04 07:50:01;;;;;;;38.77;18.90;;;;;;;5.90;85.24;101110.70;127467;1092;104259;-77
2021/01/04 07:53:03;;;;;;;40.50;19.10;;;;;;;5.85;85.15;101099.99;127640;1091;104463;-76
2021/01/04 07:55:56;;;;;;;41.37;19.47;;;;;;;5.86;85.24;101113.91;127450;1091;104234;-78
2021/01/04 07:58:53;;;;;;;39.03;18.07;;;;;;;5.92;85.20;101103.88;127614;1092;104231;-77
2021/01/04 08:01:59;;;;;;;40.37;18.63;;;;;;;5.93;85.17;101103.09;127633;1093;104241;-77
2021/01/04 08:04:46;;;;;;;44.27;19.80;;;;;;;5.94;85.05;101107.51;127568;1091;104211;-76
2021/01/04 08:07:40;;;;;;;43.93;19.93;;;;;;;5.92;84.98;101112.62;127544;1092;104362;-76
2021/01/04 08:10:28;;;;;;;47.25;21.23;;;;;;;5.92;85.12;101111.70;127513;1091;104286;-78
2021/01/04 08:13:22;;;;;;;38.83;18.63;;;;;;;5.98;85.38;101114.73;127560;1091;104234;-77
2021/01/04 08:15:59;;;;;;;38.28;17.92;;;;;;;6.00;85.28;101117.44;127546;1091;104280;-79
2021/01/04 08:18:32;;;;;;;41.80;21.10;;;;;;;6.04;85.15;101112.52;126926;1095;104484;-76
2021/01/04 08:21:14;;;;;;;40.20;20.23;;;;;;;6.10;85.41;101104.20;126902;1095;104426;-77
2021/01/04 08:24:05;;;;;;;43.40;19.93;;;;;;;6.09;85.37;101108.52;126806;1095;104853;-80
2021/01/04 08:26:51;;;;;;;51.37;21.23;;;;;;;6.08;84.93;101104.11;126867;1095;104234;-76
2021/01/04 08:29:36;;;;;;;45.17;20.73;;;;;;;6.14;85.31;101115.70;128396;1095;102457;-77
2021/01/04 08:32:18;;;;;;;42.40;19.43;;;;;;;6.13;85.01;101108.72;128380;1095;102704;-79
2021/01/04 08:34:49;;;;;;;36.27;17.07;;;;;;;6.17;84.77;101101.19;128356;1095;102388;-79
2021/01/04 08:37:32;;;;;;;37.60;18.30;;;;;;;6.19;85.03;101106.50;128403;1095;102318;-77
2021/01/04 08:40:19;;;;;;;34.43;15.90;;;;;;;6.17;85.16;101113.30;128387;1095;102384;-78
2021/01/04 08:43:02;;;;;;;39.67;18.37;;;;;;;6.17;85.06;101119.43;128406;1095;102084;-77
2021/01/04 08:45:36;;;;;;;38.33;17.40;;;;;;;6.21;84.93;101128.33;127288;1095;104288;-77
2021/01/04 08:48:16;;;;;;;33.30;15.05;;;;;;;6.23;85.21;101117.22;126777;1095;104529;-80
2021/01/04 08:50:59;;;;;;;37.47;15.97;;;;;;;6.23;84.94;101131.92;127194;1092;104205;-82
2021/01/04 08:53:29;;;;;;;39.10;16.53;;;;;;;6.22;85.03;101140.58;127495;1091;104307;-78
2021/01/04 08:56:23;;;;;;;35.03;15.07;;;;;;;6.22;84.97;101141.46;127287;1092;104725;-77
2021/01/04 08:59:08;;;;;;;30.97;13.77;;;;;;;6.21;85.07;101133.55;127658;1092;104232;-76
2021/01/04 09:01:51;;;;;;;31.47;14.43;;;;;;;6.21;85.12;101134.44;127605;1092;104486;-79
2021/01/04 09:04:35;;;;;;;33.10;15.00;;;;;;;6.20;84.93;101132.66;127657;1092;104209;-78
2021/01/04 09:07:14;;;;;;;36.50;15.23;;;;;;;6.19;85.00;101128.23;127521;1091;104524;-79
2021/01/04 09:09:53;;;;;;;32.37;14.87;;;;;;;6.20;85.12;101129.13;127456;1091;104376;-77
2021/01/04 09:12:36;;;;;;;32.23;15.37;;;;;;;6.22;85.07;101130.15;127411;1091;104237;-76
2021/01/04 09:15:14;;;;;;;30.57;13.57;;;;;;;6.25;85.03;101136.45;127486;1091;104197;-76
2021/01/04 09:17:50;;;;;;;37.73;16.20;;;;;;;6.24;84.94;101131.14;127453;1091;104241;-74
2021/01/04 09:20:46;;;;;;;30.33;13.73;;;;;;;6.22;85.04;101125.83;127581;1091;104349;-77
2021/01/04 09:23:31;;;;;;;36.77;15.27;;;;;;;6.23;85.12;101127.64;127812;1092;104177;-76
2021/01/04 09:26:16;;;;;;;30.15;14.75;;;;;;;6.25;85.05;101122.52;127661;1092;104432;-75
2021/01/04 09:28:59;;;;;;;30.30;12.97;;;;;;;6.22;85.19;101111.91;127582;1091;104218;-73
2021/01/04 09:31:29;;;;;;;32.30;14.60;;;;;;;6.21;84.99;101115.30;127653;1091;104303;-79
2021/01/04 09:34:00;;;;;;;31.90;13.83;;;;;;;6.21;84.85;101097.06;127492;1092;104395;-80
2021/01/04 09:36:30;;;;;;;31.87;12.57;;;;;;;6.21;85.15;101102.27;127452;1091;104393;-78
2021/01/04 09:39:13;;;;;;;36.43;16.83;;;;;;;6.22;85.28;101091.05;127390;1092;104240;-79
2021/01/04 09:41:43;;;;;;;34.83;16.83;;;;;;;6.26;85.18;101090.42;127469;1092;104240;-76
2021/01/04 09:44:20;;;;;;;29.73;13.70;;;;;;;6.30;85.22;101082.89;127403;1091;104206;-78
2021/01/04 09:46:54;;;;;;;34.63;15.67;;;;;;;6.32;85.07;101082.09;127566;1091;104253;-80
2021/01/04 09:49:29;;;;;;;32.42;15.70;;;;;;;6.37;85.46;101078.95;127582;1091;104208;-77
2021/01/04 09:52:04;;;;;;;32.50;15.13;;;;;;;6.41;85.13;101075.73;127625;1091;104340;-77
2021/01/04 09:54:41;;;;;;;35.13;15.97;;;;;;;6.44;85.11;101070.71;127613;1092;104212;-75
2021/01/04 09:57:11;;;;;;;32.57;15.27;;;;;;;6.41;84.75;101075.73;127804;1091;104699;-76
2021/01/04 09:59:43;;;;;;;36.47;16.47;;;;;;;6.41;84.91;101075.73;127623;1091;104407;-75
2021/01/04 10:02:22;;;;;;;35.70;15.77;;;;;;;6.42;84.80;101059.30;127499;1092;104406;-75
2021/01/04 10:04:53;;;;;;;34.67;15.23;;;;;;;6.40;85.21;101057.39;127585;1091;104234;-75
2021/01/04 10:07:29;;;;;;;31.37;14.20;;;;;;;6.37;85.02;101068.52;127418;1092;104490;-79
2021/01/04 10:10:10;;;;;;;32.23;14.30;;;;;;;6.37;85.21;101051.98;127403;1091;104247;-75
2021/01/04 10:12:40;;;;;;;28.33;12.80;;;;;;;6.34;85.09;101047.48;127402;1092;105048;-75
2021/01/04 10:15:22;;;;;;;36.03;16.67;;;;;;;6.33;85.02;101047.37;127406;1092;104365;-75
2021/01/04 10:18:04;;;;;;;34.47;15.97;;;;;;;6.34;84.85;101052.69;127450;1091;104225;-74
2021/01/04 10:20:41;;;;;;;32.93;15.97;;;;;;;6.34;85.15;101049.20;127335;1091;104231;-77
2021/01/04 10:23:19;;;;;;;29.63;12.87;;;;;;;6.35;84.93;101049.28;127431;1091;104260;-73
2021/01/04 10:25:53;;;;;;;37.53;17.33;;;;;;;6.36;85.15;101045.89;127403;1093;104240;-75
2021/01/04 10:28:23;;;;;;;40.27;20.07;;;;;;;6.36;85.11;101039.75;127523;1092;104241;-74
2021/01/04 10:31:11;;;;;;;33.80;15.43;;;;;;;6.37;84.84;101045.06;127483;1092;104234;-77
2021/01/04 10:33:43;;;;;;;36.80;17.10;;;;;;;6.37;85.23;101032.02;127256;1092;104273;-78
2021/01/04 10:36:23;;;;;;;39.00;18.93;;;;;;;6.42;85.13;101029.70;127377;1091;104202;-76
2021/01/04 10:39:02;;;;;;;37.83;18.50;;;;;;;6.46;85.12;101027.37;127669;1092;104213;-77
2021/01/04 10:41:36;;;;;;;38.73;18.10;;;;;;;6.47;84.92;101016.15;127346;1092;104232;-76
2021/01/04 10:44:09;;;;;;;36.55;17.90;;;;;;;6.49;84.93;101008.42;127335;1092;104291;-76
2021/01/04 10:46:41;;;;;;;38.07;16.73;;;;;;;6.51;84.98;101012.01;128853;1092;102405;-78
2021/01/04 10:49:24;;;;;;;36.83;16.93;;;;;;;6.51;84.92;101018.94;127397;1093;104305;-76
2021/01/04 10:51:59;;;;;;;39.90;18.57;;;;;;;6.53;84.76;101013.02;127343;1091;104432;-79
2021/01/04 10:54:38;;;;;;;38.77;16.67;;;;;;;6.56;84.79;101007.07;127602;1092;104302;-74
2021/01/04 10:57:33;;;;;;;38.33;19.03;;;;;;;6.54;84.83;101006.09;127508;1092;104423;-80
2021/01/04 11:00:06;;;;;;;;;;;;;;;6.56;84.71;101002.78;127085;1093;104336;-80
2021/01/04 11:02:40;;;;;;;39.00;17.10;;;;;;;6.60;85.27;100993.42;127244;1091;104315;-75
2021/01/04 11:05:13;;;;;;;38.33;17.95;;;;;;;6.62;84.86;100999.61;127238;1091;104203;-76
2021/01/04 11:07:43;;;;;;;44.90;21.17;;;;;;;6.63;85.02;100991.00;128264;1092;103043;-76
2021/01/04 11:10:22;;;;;;;45.40;22.40;;;;;;;6.63;85.01;100991.88;127406;1092;104341;-80
2021/01/04 11:12:54;;;;;;;42.83;19.77;;;;;;;6.65;84.55;100995.50;127352;1091;104240;-77
2021/01/04 11:15:28;;;;;;;39.30;17.85;;;;;;;6.67;84.68;100992.98;127348;1093;104280;-80
2021/01/04 11:18:01;;;;;;;49.27;21.62;;;;;;;6.60;84.60;100983.88;127190;1092;104241;-78
2021/01/04 11:20:31;;;;;;;41.60;18.80;;;;;;;6.60;85.03;100983.88;127110;1091;104235;-80
2021/01/04 11:23:08;;;;;;;42.67;19.83;;;;;;;6.55;84.80;100992.26;127156;1092;104314;-78
2021/01/04 11:25:39;;;;;;;43.33;20.23;;;;;;;6.52;84.77;100979.92;127190;1093;104343;-79
2021/01/04 11:28:09;;;;;;;44.03;21.47;;;;;;;6.51;84.80;100983.33;127202;1092;104313;-79
2021/01/04 11:30:40;;;;;;;39.70;19.47;;;;;;;6.50;84.51;100986.77;127150;1092;104241;-78
2021/01/04 11:33:14;;;;;;;38.43;18.43;;;;;;;6.50;84.97;100970.20;126789;1095;104363;-79
2021/01/04 11:35:45;;;;;;;35.20;17.23;;;;;;;6.46;84.77;100963.91;126768;1095;104353;-77
2021/01/04 11:38:16;;;;;;;40.37;16.87;;;;;;;6.43;84.77;100968.94;126736;1094;104409;-77
2021/01/04 11:40:51;;;;;;;43.70;20.00;;;;;;;6.39;84.93;100960.05;126890;1095;104265;-76
2021/01/04 11:43:22;;;;;;;43.87;20.77;;;;;;;6.42;84.64;100961.92;126740;1095;104393;-76
2021/01/04 11:45:52;;;;;;;39.97;19.77;;;;;;;6.44;85.06;100956.00;126871;1095;104540;-77
2021/01/04 11:48:24;;;;;;;40.57;19.10;;;;;;;6.47;85.22;100957.91;126716;1095;104573;-78
2021/01/04 11:50:54;;;;;;;41.63;20.90;;;;;;;6.50;84.84;100963.30;126744;1095;104413;-76
2021/01/04 11:53:28;;;;;;;39.40;18.40;;;;;;;6.51;84.71;100940.72;127273;1095;104670;-81
2021/01/04 11:55:58;;;;;;;41.90;19.83;;;;;;;6.51;84.79;100943.33;126842;1095;104403;-80
2021/01/04 11:58:28;;;;;;;37.43;16.90;;;;;;;6.46;84.65;100941.34;126980;1095;104240;-77